sensor_id;sensor_type;location;lat;lon;timestamp;temperature;humidity
7648;DHT22;3866;48.020;11.720;2022-12-07T00:01:17;3.40;99.90
7648;DHT22;3866;48.020;11.720;2022-12-07T00:03:46;3.40;99.90
7648;DHT22;3866;48.020;11.720;2022-12-07T00:06:16;3.40;99.90
7648;DHT22;3866;48.020;11.720;2022-12-07T00:08:43;3.40;99.90
7648;DHT22;3866;48.020;11.720;2022-12-07T00:11:14;3.30;99.90
7648;DHT22;3866;48.020;11.720;2022-12-07T00:13:41;3.40;99.90
7648;DHT22;3866;48.020;11.720;2022-12-07T00:16:11;3.40;99.90
7648;DHT22;3866;48.020;11.720;2022-12-07T00:18:38;3.50;99.90
7648;DHT22;3866;48.020;11.720;2022-12-07T00:21:08;3.50;99.90
7648;DHT22;3866;48.020;11.720;2022-12-07T00:23:35;3.50;99.90
7648;DHT22;3866;48.020;11.720;2022-12-07T00:26:04;3.50;99.90
7648;DHT22;3866;48.020;11.720;2022-12-07T00:28:32;3.40;99.90
7648;DHT22;3866;48.020;11.720;2022-12-07T00:31:02;3.60;99.90
7648;DHT22;3866;48.020;11.720;2022-12-07T00:33:29;3.50;99.90
7648;DHT22;3866;48.020;11.720;2022-12-07T00:35:56;3.50;99.90
7648;DHT22;3866;48.020;11.720;2022-12-07T00:38:24;3.50;99.90
7648;DHT22;3866;48.020;11.720;2022-12-07T00:40:56;3.50;99.90
7648;DHT22;3866;48.020;11.720;2022-12-07T00:43:23;3.50;99.90
7648;DHT22;3866;48.020;11.720;2022-12-07T00:45:51;3.50;99.90
7648;DHT22;3866;48.020;11.720;2022-12-07T00:48:18;3.50;99.90
7648;DHT22;3866;48.020;11.720;2022-12-07T00:50:45;3.50;99.90
7648;DHT22;3866;48.020;11.720;2022-12-07T00:53:13;3.50;99.90
7648;DHT22;3866;48.020;11.720;2022-12-07T00:55:40;3.50;99.90
7648;DHT22;3866;48.020;11.720;2022-12-07T00:58:07;3.40;99.90
7648;DHT22;3866;48.020;11.720;2022-12-07T01:00:36;3.50;99.90
7648;DHT22;3866;48.020;11.720;2022-12-07T01:03:06;3.40;99.90
7648;DHT22;3866;48.020;11.720;2022-12-07T01:05:33;3.40;99.90
7648;DHT22;3866;48.020;11.720;2022-12-07T01:08:00;3.50;99.90
7648;DHT22;3866;48.020;11.720;2022-12-07T01:10:29;3.50;99.90
7648;DHT22;3866;48.020;11.720;2022-12-07T01:12:57;3.50;99.90
7648;DHT22;3866;48.020;11.720;2022-12-07T01:15:24;3.40;99.90
7648;DHT22;3866;48.020;11.720;2022-12-07T01:17:51;3.40;99.90
7648;DHT22;3866;48.020;11.720;2022-12-07T01:20:21;3.40;99.90
7648;DHT22;3866;48.020;11.720;2022-12-07T01:22:48;3.40;99.90
7648;DHT22;3866;48.020;11.720;2022-12-07T01:25:15;3.30;99.90
7648;DHT22;3866;48.020;11.720;2022-12-07T01:27:42;3.40;99.90
7648;DHT22;3866;48.020;11.720;2022-12-07T01:30:10;3.30;99.90
7648;DHT22;3866;48.020;11.720;2022-12-07T01:32:37;3.40;99.90
7648;DHT22;3866;48.020;11.720;2022-12-07T01:35:05;3.30;99.90
7648;DHT22;3866;48.020;11.720;2022-12-07T01:37:36;3.30;99.90
7648;DHT22;3866;48.020;11.720;2022-12-07T01:40:04;3.40;99.90
7648;DHT22;3866;48.020;11.720;2022-12-07T01:42:32;3.40;99.90
7648;DHT22;3866;48.020;11.720;2022-12-07T01:48:03;3.30;99.90
7648;DHT22;3866;48.020;11.720;2022-12-07T01:50:30;3.20;99.90
7648;DHT22;3866;48.020;11.720;2022-12-07T01:53:01;3.20;99.90
7648;DHT22;3866;48.020;11.720;2022-12-07T01:55:31;3.30;99.90
7648;DHT22;3866;48.020;11.720;2022-12-07T01:57:59;3.40;99.90
7648;DHT22;3866;48.020;11.720;2022-12-07T02:00:26;3.30;99.90
7648;DHT22;3866;48.020;11.720;2022-12-07T02:02:55;3.20;99.90
7648;DHT22;3866;48.020;11.720;2022-12-07T02:05:24;3.30;99.90
7648;DHT22;3866;48.020;11.720;2022-12-07T02:07:54;3.20;99.90
7648;DHT22;3866;48.020;11.720;2022-12-07T02:10:26;3.30;99.90
7648;DHT22;3866;48.020;11.720;2022-12-07T02:12:56;3.30;99.90
7648;DHT22;3866;48.020;11.720;2022-12-07T02:15:28;3.30;99.90
7648;DHT22;3866;48.020;11.720;2022-12-07T02:18:03;3.30;99.90
7648;DHT22;3866;48.020;11.720;2022-12-07T02:20:33;3.20;99.90
7648;DHT22;3866;48.020;11.720;2022-12-07T02:23:23;3.30;99.90
7648;DHT22;3866;48.020;11.720;2022-12-07T02:29:07;3.20;99.90
7648;DHT22;3866;48.020;11.720;2022-12-07T02:31:38;3.20;99.90
7648;DHT22;3866;48.020;11.720;2022-12-07T02:34:14;3.20;99.90
7648;DHT22;3866;48.020;11.720;2022-12-07T02:36:49;3.30;99.90
7648;DHT22;3866;48.020;11.720;2022-12-07T02:39:22;3.20;99.90
7648;DHT22;3866;48.020;11.720;2022-12-07T02:41:55;3.20;99.90
7648;DHT22;3866;48.020;11.720;2022-12-07T02:44:27;3.20;99.90
7648;DHT22;3866;48.020;11.720;2022-12-07T02:46:59;3.20;99.90
7648;DHT22;3866;48.020;11.720;2022-12-07T02:49:28;3.20;99.90
7648;DHT22;3866;48.020;11.720;2022-12-07T02:51:55;3.20;99.90
7648;DHT22;3866;48.020;11.720;2022-12-07T02:54:22;3.20;99.90
7648;DHT22;3866;48.020;11.720;2022-12-07T02:56:51;3.30;99.90
7648;DHT22;3866;48.020;11.720;2022-12-07T02:59:29;3.30;99.90
7648;DHT22;3866;48.020;11.720;2022-12-07T03:02:06;3.30;99.90
7648;DHT22;3866;48.020;11.720;2022-12-07T03:04:45;3.20;99.90
7648;DHT22;3866;48.020;11.720;2022-12-07T03:07:21;3.20;99.90
7648;DHT22;3866;48.020;11.720;2022-12-07T03:09:57;3.30;99.90
7648;DHT22;3866;48.020;11.720;2022-12-07T03:12:32;3.20;99.90
7648;DHT22;3866;48.020;11.720;2022-12-07T03:15:07;3.20;99.90
7648;DHT22;3866;48.020;11.720;2022-12-07T03:17:38;3.20;99.90
7648;DHT22;3866;48.020;11.720;2022-12-07T03:20:10;3.20;99.90
7648;DHT22;3866;48.020;11.720;2022-12-07T03:22:39;3.30;99.90
7648;DHT22;3866;48.020;11.720;2022-12-07T03:25:10;3.30;99.90
7648;DHT22;3866;48.020;11.720;2022-12-07T03:27:41;3.30;99.90
7648;DHT22;3866;48.020;11.720;2022-12-07T03:30:16;3.20;99.90
7648;DHT22;3866;48.020;11.720;2022-12-07T03:32:45;3.30;99.90
7648;DHT22;3866;48.020;11.720;2022-12-07T03:35:19;3.20;99.90
7648;DHT22;3866;48.020;11.720;2022-12-07T03:37:50;3.20;99.90
7648;DHT22;3866;48.020;11.720;2022-12-07T03:40:23;3.20;99.90
7648;DHT22;3866;48.020;11.720;2022-12-07T03:42:52;3.10;99.90
7648;DHT22;3866;48.020;11.720;2022-12-07T03:45:25;3.00;99.90
7648;DHT22;3866;48.020;11.720;2022-12-07T03:48:03;3.10;99.90
7648;DHT22;3866;48.020;11.720;2022-12-07T03:50:38;3.00;99.90
7648;DHT22;3866;48.020;11.720;2022-12-07T03:53:12;3.10;99.90
7648;DHT22;3866;48.020;11.720;2022-12-07T03:55:44;3.10;99.90
7648;DHT22;3866;48.020;11.720;2022-12-07T03:58:15;3.00;99.90
7648;DHT22;3866;48.020;11.720;2022-12-07T04:00:44;3.00;99.90
7648;DHT22;3866;48.020;11.720;2022-12-07T04:03:11;3.00;99.90
7648;DHT22;3866;48.020;11.720;2022-12-07T04:05:39;3.10;99.90
7648;DHT22;3866;48.020;11.720;2022-12-07T04:08:06;3.00;99.90
7648;DHT22;3866;48.020;11.720;2022-12-07T04:10:33;3.00;99.90
7648;DHT22;3866;48.020;11.720;2022-12-07T04:13:01;2.90;99.90
7648;DHT22;3866;48.020;11.720;2022-12-07T04:15:28;3.00;99.90
7648;DHT22;3866;48.020;11.720;2022-12-07T04:17:56;3.10;99.90
7648;DHT22;3866;48.020;11.720;2022-12-07T04:20:23;3.10;99.90
7648;DHT22;3866;48.020;11.720;2022-12-07T04:22:50;3.20;99.90
7648;DHT22;3866;48.020;11.720;2022-12-07T04:25:17;3.00;99.90
7648;DHT22;3866;48.020;11.720;2022-12-07T04:27:44;3.10;99.90
7648;DHT22;3866;48.020;11.720;2022-12-07T04:30:11;3.10;99.90
7648;DHT22;3866;48.020;11.720;2022-12-07T04:32:38;3.10;99.90
7648;DHT22;3866;48.020;11.720;2022-12-07T04:35:07;3.20;99.90
7648;DHT22;3866;48.020;11.720;2022-12-07T04:37:34;3.20;99.90
7648;DHT22;3866;48.020;11.720;2022-12-07T04:40:01;3.30;99.90
7648;DHT22;3866;48.020;11.720;2022-12-07T04:42:28;3.20;99.90
7648;DHT22;3866;48.020;11.720;2022-12-07T04:44:55;3.20;99.90
7648;DHT22;3866;48.020;11.720;2022-12-07T04:47:22;3.10;99.90
7648;DHT22;3866;48.020;11.720;2022-12-07T04:49:49;3.10;99.90
7648;DHT22;3866;48.020;11.720;2022-12-07T04:52:17;3.10;99.90
7648;DHT22;3866;48.020;11.720;2022-12-07T04:54:44;3.10;99.90
7648;DHT22;3866;48.020;11.720;2022-12-07T04:57:11;3.00;99.90
7648;DHT22;3866;48.020;11.720;2022-12-07T04:59:38;3.10;99.90
7648;DHT22;3866;48.020;11.720;2022-12-07T05:02:05;3.20;99.90
7648;DHT22;3866;48.020;11.720;2022-12-07T05:04:32;3.10;99.90
7648;DHT22;3866;48.020;11.720;2022-12-07T05:06:59;3.00;99.90
7648;DHT22;3866;48.020;11.720;2022-12-07T05:09:27;3.10;99.90
7648;DHT22;3866;48.020;11.720;2022-12-07T05:11:54;3.00;99.90
7648;DHT22;3866;48.020;11.720;2022-12-07T05:14:21;2.90;99.90
7648;DHT22;3866;48.020;11.720;2022-12-07T05:16:50;2.90;99.90
7648;DHT22;3866;48.020;11.720;2022-12-07T05:19:17;3.10;99.90
7648;DHT22;3866;48.020;11.720;2022-12-07T05:21:45;3.10;99.90
7648;DHT22;3866;48.020;11.720;2022-12-07T05:24:13;3.20;99.90
7648;DHT22;3866;48.020;11.720;2022-12-07T05:26:42;3.30;99.90
7648;DHT22;3866;48.020;11.720;2022-12-07T05:29:11;3.20;99.90
7648;DHT22;3866;48.020;11.720;2022-12-07T05:31:38;3.10;99.90
7648;DHT22;3866;48.020;11.720;2022-12-07T05:34:05;3.20;99.90
7648;DHT22;3866;48.020;11.720;2022-12-07T05:36:32;3.10;99.90
7648;DHT22;3866;48.020;11.720;2022-12-07T05:38:59;3.10;99.90
7648;DHT22;3866;48.020;11.720;2022-12-07T05:41:26;2.90;99.90
7648;DHT22;3866;48.020;11.720;2022-12-07T05:44:12;2.80;99.90
7648;DHT22;3866;48.020;11.720;2022-12-07T05:46:39;2.90;99.90
7648;DHT22;3866;48.020;11.720;2022-12-07T05:49:06;2.90;99.90
7648;DHT22;3866;48.020;11.720;2022-12-07T05:51:33;2.90;99.90
7648;DHT22;3866;48.020;11.720;2022-12-07T05:53:59;2.90;99.90
7648;DHT22;3866;48.020;11.720;2022-12-07T05:56:26;2.80;99.90
7648;DHT22;3866;48.020;11.720;2022-12-07T05:58:54;2.70;99.90
7648;DHT22;3866;48.020;11.720;2022-12-07T06:01:39;2.80;99.90
7648;DHT22;3866;48.020;11.720;2022-12-07T06:04:06;2.70;99.90
7648;DHT22;3866;48.020;11.720;2022-12-07T06:06:33;2.60;99.90
7648;DHT22;3866;48.020;11.720;2022-12-07T06:09:00;2.70;99.90
7648;DHT22;3866;48.020;11.720;2022-12-07T06:11:27;2.70;99.90
7648;DHT22;3866;48.020;11.720;2022-12-07T06:14:12;2.70;99.90
7648;DHT22;3866;48.020;11.720;2022-12-07T06:16:40;2.60;99.90
7648;DHT22;3866;48.020;11.720;2022-12-07T06:19:07;2.60;99.90
7648;DHT22;3866;48.020;11.720;2022-12-07T06:21:34;2.50;99.90
7648;DHT22;3866;48.020;11.720;2022-12-07T06:24:01;2.60;99.90
7648;DHT22;3866;48.020;11.720;2022-12-07T06:26:28;2.70;99.90
7648;DHT22;3866;48.020;11.720;2022-12-07T06:28:55;2.70;99.90
7648;DHT22;3866;48.020;11.720;2022-12-07T06:31:22;2.60;99.90
7648;DHT22;3866;48.020;11.720;2022-12-07T06:33:50;2.70;99.90
7648;DHT22;3866;48.020;11.720;2022-12-07T06:36:17;2.70;99.90
7648;DHT22;3866;48.020;11.720;2022-12-07T06:38:44;2.70;99.90
7648;DHT22;3866;48.020;11.720;2022-12-07T06:41:11;2.70;99.90
7648;DHT22;3866;48.020;11.720;2022-12-07T06:43:38;2.80;99.90
7648;DHT22;3866;48.020;11.720;2022-12-07T06:46:05;2.70;99.90
7648;DHT22;3866;48.020;11.720;2022-12-07T06:48:32;2.70;99.90
7648;DHT22;3866;48.020;11.720;2022-12-07T06:51:00;2.50;99.90
7648;DHT22;3866;48.020;11.720;2022-12-07T06:53:27;2.60;99.90
7648;DHT22;3866;48.020;11.720;2022-12-07T06:55:54;2.70;99.90
7648;DHT22;3866;48.020;11.720;2022-12-07T06:58:21;2.70;99.90
7648;DHT22;3866;48.020;11.720;2022-12-07T07:00:49;2.60;99.90
7648;DHT22;3866;48.020;11.720;2022-12-07T07:03:16;2.70;99.90
7648;DHT22;3866;48.020;11.720;2022-12-07T07:05:43;2.60;99.90
7648;DHT22;3866;48.020;11.720;2022-12-07T07:08:11;2.70;99.90
7648;DHT22;3866;48.020;11.720;2022-12-07T07:10:39;2.70;99.90
7648;DHT22;3866;48.020;11.720;2022-12-07T07:13:06;2.60;99.90
7648;DHT22;3866;48.020;11.720;2022-12-07T07:15:34;2.40;99.90
7648;DHT22;3866;48.020;11.720;2022-12-07T07:18:01;2.40;99.90
7648;DHT22;3866;48.020;11.720;2022-12-07T07:20:28;2.50;99.90
7648;DHT22;3866;48.020;11.720;2022-12-07T07:22:56;2.40;99.90
7648;DHT22;3866;48.020;11.720;2022-12-07T07:25:24;2.40;99.90
7648;DHT22;3866;48.020;11.720;2022-12-07T07:27:51;2.40;99.90
7648;DHT22;3866;48.020;11.720;2022-12-07T07:30:18;2.40;99.90
7648;DHT22;3866;48.020;11.720;2022-12-07T07:32:45;2.40;99.90
7648;DHT22;3866;48.020;11.720;2022-12-07T07:35:12;2.50;99.90
7648;DHT22;3866;48.020;11.720;2022-12-07T07:37:39;2.40;99.90
7648;DHT22;3866;48.020;11.720;2022-12-07T07:40:07;2.40;99.90
7648;DHT22;3866;48.020;11.720;2022-12-07T07:42:36;2.20;99.90
7648;DHT22;3866;48.020;11.720;2022-12-07T07:45:03;2.40;99.90
7648;DHT22;3866;48.020;11.720;2022-12-07T07:47:30;2.40;99.90
7648;DHT22;3866;48.020;11.720;2022-12-07T07:49:57;2.40;99.90
7648;DHT22;3866;48.020;11.720;2022-12-07T07:52:25;2.50;99.90
7648;DHT22;3866;48.020;11.720;2022-12-07T07:54:51;2.50;99.90
7648;DHT22;3866;48.020;11.720;2022-12-07T07:57:18;2.40;99.90
7648;DHT22;3866;48.020;11.720;2022-12-07T07:59:47;2.30;99.90
7648;DHT22;3866;48.020;11.720;2022-12-07T08:02:15;2.40;99.90
7648;DHT22;3866;48.020;11.720;2022-12-07T08:04:42;2.40;99.90
7648;DHT22;3866;48.020;11.720;2022-12-07T08:07:09;2.40;99.90
7648;DHT22;3866;48.020;11.720;2022-12-07T08:09:36;2.40;99.90
7648;DHT22;3866;48.020;11.720;2022-12-07T08:12:04;2.40;99.90
7648;DHT22;3866;48.020;11.720;2022-12-07T08:14:31;2.40;99.90
7648;DHT22;3866;48.020;11.720;2022-12-07T08:17:00;2.50;99.90
7648;DHT22;3866;48.020;11.720;2022-12-07T08:19:27;2.50;99.90
7648;DHT22;3866;48.020;11.720;2022-12-07T08:21:55;2.60;99.90
7648;DHT22;3866;48.020;11.720;2022-12-07T08:24:22;2.50;99.90
7648;DHT22;3866;48.020;11.720;2022-12-07T08:26:51;2.50;99.90
7648;DHT22;3866;48.020;11.720;2022-12-07T08:29:18;2.50;99.90
7648;DHT22;3866;48.020;11.720;2022-12-07T08:31:47;2.50;99.90
7648;DHT22;3866;48.020;11.720;2022-12-07T08:34:15;2.50;99.90
7648;DHT22;3866;48.020;11.720;2022-12-07T08:36:42;2.50;99.90
7648;DHT22;3866;48.020;11.720;2022-12-07T08:39:09;2.60;99.90
7648;DHT22;3866;48.020;11.720;2022-12-07T08:41:36;2.50;99.90
7648;DHT22;3866;48.020;11.720;2022-12-07T08:44:03;2.60;99.90
7648;DHT22;3866;48.020;11.720;2022-12-07T08:46:33;2.80;99.90
7648;DHT22;3866;48.020;11.720;2022-12-07T08:49:05;2.80;99.90
7648;DHT22;3866;48.020;11.720;2022-12-07T08:51:36;2.80;99.90
7648;DHT22;3866;48.020;11.720;2022-12-07T08:54:07;2.90;99.90
7648;DHT22;3866;48.020;11.720;2022-12-07T08:56:35;3.00;99.90
7648;DHT22;3866;48.020;11.720;2022-12-07T08:59:03;3.10;99.90
7648;DHT22;3866;48.020;11.720;2022-12-07T09:01:30;3.10;99.90
7648;DHT22;3866;48.020;11.720;2022-12-07T09:03:58;2.90;99.90
7648;DHT22;3866;48.020;11.720;2022-12-07T09:06:25;2.80;99.90
7648;DHT22;3866;48.020;11.720;2022-12-07T09:08:56;2.90;99.90
7648;DHT22;3866;48.020;11.720;2022-12-07T09:11:24;3.00;99.90
7648;DHT22;3866;48.020;11.720;2022-12-07T09:13:51;3.00;99.90
7648;DHT22;3866;48.020;11.720;2022-12-07T09:16:18;3.00;99.90
7648;DHT22;3866;48.020;11.720;2022-12-07T09:18:45;3.00;99.90
7648;DHT22;3866;48.020;11.720;2022-12-07T09:21:12;3.00;99.90
7648;DHT22;3866;48.020;11.720;2022-12-07T09:23:41;3.00;99.90
7648;DHT22;3866;48.020;11.720;2022-12-07T09:26:09;3.00;99.90
7648;DHT22;3866;48.020;11.720;2022-12-07T09:28:37;3.00;99.90
7648;DHT22;3866;48.020;11.720;2022-12-07T09:31:04;3.10;99.90
7648;DHT22;3866;48.020;11.720;2022-12-07T09:33:31;3.20;99.90
7648;DHT22;3866;48.020;11.720;2022-12-07T09:35:58;3.20;99.90
7648;DHT22;3866;48.020;11.720;2022-12-07T09:38:25;3.30;99.90
7648;DHT22;3866;48.020;11.720;2022-12-07T09:40:54;3.30;99.90
7648;DHT22;3866;48.020;11.720;2022-12-07T09:43:24;3.20;99.90
7648;DHT22;3866;48.020;11.720;2022-12-07T09:45:53;3.30;99.90
7648;DHT22;3866;48.020;11.720;2022-12-07T09:48:23;3.30;99.90
7648;DHT22;3866;48.020;11.720;2022-12-07T09:50:52;3.30;99.90
7648;DHT22;3866;48.020;11.720;2022-12-07T09:53:24;3.30;99.90
7648;DHT22;3866;48.020;11.720;2022-12-07T09:55:52;3.40;99.90
7648;DHT22;3866;48.020;11.720;2022-12-07T09:58:24;3.30;99.90
7648;DHT22;3866;48.020;11.720;2022-12-07T10:00:54;3.30;99.90
7648;DHT22;3866;48.020;11.720;2022-12-07T10:03:22;3.40;99.90
7648;DHT22;3866;48.020;11.720;2022-12-07T10:05:51;3.40;99.90
7648;DHT22;3866;48.020;11.720;2022-12-07T10:08:18;3.40;99.90
7648;DHT22;3866;48.020;11.720;2022-12-07T10:10:50;3.50;99.90
7648;DHT22;3866;48.020;11.720;2022-12-07T10:13:20;3.50;99.90
7648;DHT22;3866;48.020;11.720;2022-12-07T10:15:51;3.40;99.90
7648;DHT22;3866;48.020;11.720;2022-12-07T10:18:28;3.50;99.90
7648;DHT22;3866;48.020;11.720;2022-12-07T10:21:13;3.70;99.90
7648;DHT22;3866;48.020;11.720;2022-12-07T10:23:52;3.70;99.90
7648;DHT22;3866;48.020;11.720;2022-12-07T10:26:31;3.60;99.90
7648;DHT22;3866;48.020;11.720;2022-12-07T10:29:00;3.60;99.90
7648;DHT22;3866;48.020;11.720;2022-12-07T10:31:29;3.60;99.90
7648;DHT22;3866;48.020;11.720;2022-12-07T10:33:58;3.60;99.90
7648;DHT22;3866;48.020;11.720;2022-12-07T10:36:30;3.70;99.90
7648;DHT22;3866;48.020;11.720;2022-12-07T10:39:02;3.70;99.90
7648;DHT22;3866;48.020;11.720;2022-12-07T10:41:29;3.90;99.90
7648;DHT22;3866;48.020;11.720;2022-12-07T10:43:57;3.90;99.90
7648;DHT22;3866;48.020;11.720;2022-12-07T10:46:45;3.80;99.90
7648;DHT22;3866;48.020;11.720;2022-12-07T10:52:21;3.70;99.90
7648;DHT22;3866;48.020;11.720;2022-12-07T10:55:03;3.70;99.90
7648;DHT22;3866;48.020;11.720;2022-12-07T10:57:43;3.70;99.90
7648;DHT22;3866;48.020;11.720;2022-12-07T11:00:17;3.70;99.90
7648;DHT22;3866;48.020;11.720;2022-12-07T11:03:12;3.80;99.90
7648;DHT22;3866;48.020;11.720;2022-12-07T11:05:48;3.80;99.90
7648;DHT22;3866;48.020;11.720;2022-12-07T11:08:24;3.80;99.90
7648;DHT22;3866;48.020;11.720;2022-12-07T11:11:05;3.80;99.90
7648;DHT22;3866;48.020;11.720;2022-12-07T11:13:39;3.90;99.90
7648;DHT22;3866;48.020;11.720;2022-12-07T11:16:19;4.00;99.90
7648;DHT22;3866;48.020;11.720;2022-12-07T11:19:00;3.80;99.90
7648;DHT22;3866;48.020;11.720;2022-12-07T11:21:37;3.90;99.90
7648;DHT22;3866;48.020;11.720;2022-12-07T11:24:12;4.00;99.90
7648;DHT22;3866;48.020;11.720;2022-12-07T11:26:58;4.10;99.90
7648;DHT22;3866;48.020;11.720;2022-12-07T11:29:47;4.10;99.90
7648;DHT22;3866;48.020;11.720;2022-12-07T11:32:21;4.10;99.90
7648;DHT22;3866;48.020;11.720;2022-12-07T11:34:57;4.20;99.90
7648;DHT22;3866;48.020;11.720;2022-12-07T11:37:31;4.10;99.90
7648;DHT22;3866;48.020;11.720;2022-12-07T11:40:03;4.10;99.90
7648;DHT22;3866;48.020;11.720;2022-12-07T11:42:35;4.30;99.90
7648;DHT22;3866;48.020;11.720;2022-12-07T11:45:12;4.30;99.90
7648;DHT22;3866;48.020;11.720;2022-12-07T11:47:46;4.20;99.90
7648;DHT22;3866;48.020;11.720;2022-12-07T11:50:26;4.20;99.90
7648;DHT22;3866;48.020;11.720;2022-12-07T11:52:58;4.10;99.90
7648;DHT22;3866;48.020;11.720;2022-12-07T11:55:30;4.00;99.90
7648;DHT22;3866;48.020;11.720;2022-12-07T11:58:04;4.10;99.90
7648;DHT22;3866;48.020;11.720;2022-12-07T12:00:37;4.10;99.90
7648;DHT22;3866;48.020;11.720;2022-12-07T12:03:10;4.10;99.90
7648;DHT22;3866;48.020;11.720;2022-12-07T12:05:41;4.00;99.90
7648;DHT22;3866;48.020;11.720;2022-12-07T12:08:14;4.00;99.90
7648;DHT22;3866;48.020;11.720;2022-12-07T12:10:51;4.00;99.90
7648;DHT22;3866;48.020;11.720;2022-12-07T12:13:33;4.10;99.90
7648;DHT22;3866;48.020;11.720;2022-12-07T12:16:19;4.00;99.90
7648;DHT22;3866;48.020;11.720;2022-12-07T12:19:14;3.90;99.90
7648;DHT22;3866;48.020;11.720;2022-12-07T12:21:47;3.90;99.90
7648;DHT22;3866;48.020;11.720;2022-12-07T12:24:18;3.90;99.90
7648;DHT22;3866;48.020;11.720;2022-12-07T12:26:50;4.10;99.90
7648;DHT22;3866;48.020;11.720;2022-12-07T12:29:26;4.00;99.90
7648;DHT22;3866;48.020;11.720;2022-12-07T12:32:13;4.00;99.90
7648;DHT22;3866;48.020;11.720;2022-12-07T12:34:58;4.10;99.90
7648;DHT22;3866;48.020;11.720;2022-12-07T12:37:44;4.10;99.90
7648;DHT22;3866;48.020;11.720;2022-12-07T12:40:40;4.20;99.90
7648;DHT22;3866;48.020;11.720;2022-12-07T12:46:45;3.90;99.90
7648;DHT22;3866;48.020;11.720;2022-12-07T12:49:37;4.10;99.90
7648;DHT22;3866;48.020;11.720;2022-12-07T12:55:21;4.10;99.90
7648;DHT22;3866;48.020;11.720;2022-12-07T12:58:30;4.20;99.90
7648;DHT22;3866;48.020;11.720;2022-12-07T13:04:51;4.10;99.90
7648;DHT22;3866;48.020;11.720;2022-12-07T13:10:40;4.10;99.90
7648;DHT22;3866;48.020;11.720;2022-12-07T13:13:31;4.10;99.90
7648;DHT22;3866;48.020;11.720;2022-12-07T13:22:33;3.90;99.90
7648;DHT22;3866;48.020;11.720;2022-12-07T13:25:07;4.00;99.90
7648;DHT22;3866;48.020;11.720;2022-12-07T13:27:37;4.00;99.90
7648;DHT22;3866;48.020;11.720;2022-12-07T13:30:14;4.00;99.90
7648;DHT22;3866;48.020;11.720;2022-12-07T13:32:41;3.90;99.90
7648;DHT22;3866;48.020;11.720;2022-12-07T13:35:30;3.90;99.90
7648;DHT22;3866;48.020;11.720;2022-12-07T13:37:57;4.00;99.90
7648;DHT22;3866;48.020;11.720;2022-12-07T13:40:24;4.00;99.90
7648;DHT22;3866;48.020;11.720;2022-12-07T13:42:59;4.00;99.90
7648;DHT22;3866;48.020;11.720;2022-12-07T13:45:28;4.10;99.90
7648;DHT22;3866;48.020;11.720;2022-12-07T13:48:15;4.00;99.90
7648;DHT22;3866;48.020;11.720;2022-12-07T13:50:43;4.00;99.90
7648;DHT22;3866;48.020;11.720;2022-12-07T13:53:12;4.10;99.90
7648;DHT22;3866;48.020;11.720;2022-12-07T13:55:45;4.20;99.90
7648;DHT22;3866;48.020;11.720;2022-12-07T13:58:14;4.10;99.90
7648;DHT22;3866;48.020;11.720;2022-12-07T14:00:41;4.10;99.90
7648;DHT22;3866;48.020;11.720;2022-12-07T14:03:28;4.10;99.90
7648;DHT22;3866;48.020;11.720;2022-12-07T14:06:23;4.00;99.90
7648;DHT22;3866;48.020;11.720;2022-12-07T14:09:06;4.00;99.90
7648;DHT22;3866;48.020;11.720;2022-12-07T14:11:33;4.00;99.90
7648;DHT22;3866;48.020;11.720;2022-12-07T14:14:03;4.00;99.90
7648;DHT22;3866;48.020;11.720;2022-12-07T14:16:31;4.10;99.90
7648;DHT22;3866;48.020;11.720;2022-12-07T14:19:00;4.10;99.90
7648;DHT22;3866;48.020;11.720;2022-12-07T14:21:28;4.10;99.90
7648;DHT22;3866;48.020;11.720;2022-12-07T14:24:12;4.10;99.90
7648;DHT22;3866;48.020;11.720;2022-12-07T14:26:44;4.10;99.90
7648;DHT22;3866;48.020;11.720;2022-12-07T14:29:37;4.00;99.90
7648;DHT22;3866;48.020;11.720;2022-12-07T14:32:22;3.90;99.90
7648;DHT22;3866;48.020;11.720;2022-12-07T14:35:01;4.00;99.90
7648;DHT22;3866;48.020;11.720;2022-12-07T14:37:29;3.80;99.90
7648;DHT22;3866;48.020;11.720;2022-12-07T14:39:57;3.90;99.90
7648;DHT22;3866;48.020;11.720;2022-12-07T14:42:27;3.80;99.90
7648;DHT22;3866;48.020;11.720;2022-12-07T14:44:56;3.80;99.90
7648;DHT22;3866;48.020;11.720;2022-12-07T14:47:24;3.90;99.90
7648;DHT22;3866;48.020;11.720;2022-12-07T14:49:52;3.90;99.90
7648;DHT22;3866;48.020;11.720;2022-12-07T14:52:22;3.90;99.90
7648;DHT22;3866;48.020;11.720;2022-12-07T14:54:49;4.00;99.90
7648;DHT22;3866;48.020;11.720;2022-12-07T14:57:16;4.00;99.90
7648;DHT22;3866;48.020;11.720;2022-12-07T14:59:43;3.80;99.90
7648;DHT22;3866;48.020;11.720;2022-12-07T15:02:13;3.70;99.90
7648;DHT22;3866;48.020;11.720;2022-12-07T15:04:40;3.80;99.90
7648;DHT22;3866;48.020;11.720;2022-12-07T15:07:12;3.70;99.90
7648;DHT22;3866;48.020;11.720;2022-12-07T15:09:41;3.60;99.90
7648;DHT22;3866;48.020;11.720;2022-12-07T15:12:08;3.60;99.90
7648;DHT22;3866;48.020;11.720;2022-12-07T15:14:35;3.60;99.90
7648;DHT22;3866;48.020;11.720;2022-12-07T15:17:02;3.60;99.90
7648;DHT22;3866;48.020;11.720;2022-12-07T15:19:30;3.50;99.90
7648;DHT22;3866;48.020;11.720;2022-12-07T15:21:58;3.40;99.90
7648;DHT22;3866;48.020;11.720;2022-12-07T15:24:25;3.40;99.90
7648;DHT22;3866;48.020;11.720;2022-12-07T15:26:52;3.30;99.90
7648;DHT22;3866;48.020;11.720;2022-12-07T15:29:19;3.30;99.90
7648;DHT22;3866;48.020;11.720;2022-12-07T15:31:48;3.30;99.90
7648;DHT22;3866;48.020;11.720;2022-12-07T15:34:15;3.10;99.90
7648;DHT22;3866;48.020;11.720;2022-12-07T15:36:44;3.10;99.90
7648;DHT22;3866;48.020;11.720;2022-12-07T15:39:11;3.00;99.90
7648;DHT22;3866;48.020;11.720;2022-12-07T15:41:38;3.00;99.90
7648;DHT22;3866;48.020;11.720;2022-12-07T15:44:05;3.00;99.90
7648;DHT22;3866;48.020;11.720;2022-12-07T15:46:52;2.90;99.90
7648;DHT22;3866;48.020;11.720;2022-12-07T15:49:19;3.00;99.90
7648;DHT22;3866;48.020;11.720;2022-12-07T15:51:47;2.90;99.90
7648;DHT22;3866;48.020;11.720;2022-12-07T15:54:18;2.80;99.90
7648;DHT22;3866;48.020;11.720;2022-12-07T15:56:45;2.80;99.90
7648;DHT22;3866;48.020;11.720;2022-12-07T15:59:13;2.80;99.90
7648;DHT22;3866;48.020;11.720;2022-12-07T16:01:40;3.00;99.90
7648;DHT22;3866;48.020;11.720;2022-12-07T16:04:07;2.90;99.90
7648;DHT22;3866;48.020;11.720;2022-12-07T16:06:34;2.90;99.90
7648;DHT22;3866;48.020;11.720;2022-12-07T16:09:02;2.90;99.90
7648;DHT22;3866;48.020;11.720;2022-12-07T16:11:29;2.80;99.90
7648;DHT22;3866;48.020;11.720;2022-12-07T16:13:56;2.90;99.90
7648;DHT22;3866;48.020;11.720;2022-12-07T16:16:24;2.80;99.90
7648;DHT22;3866;48.020;11.720;2022-12-07T16:18:51;2.80;99.90
7648;DHT22;3866;48.020;11.720;2022-12-07T16:21:18;2.80;99.90
7648;DHT22;3866;48.020;11.720;2022-12-07T16:23:45;2.80;99.90
7648;DHT22;3866;48.020;11.720;2022-12-07T16:26:16;2.70;99.90
7648;DHT22;3866;48.020;11.720;2022-12-07T16:28:43;2.70;99.90
7648;DHT22;3866;48.020;11.720;2022-12-07T16:31:13;2.70;99.90
7648;DHT22;3866;48.020;11.720;2022-12-07T16:33:42;2.60;99.90
7648;DHT22;3866;48.020;11.720;2022-12-07T16:36:11;2.40;99.90
7648;DHT22;3866;48.020;11.720;2022-12-07T16:38:38;2.40;99.90
7648;DHT22;3866;48.020;11.720;2022-12-07T16:41:06;2.30;99.90
7648;DHT22;3866;48.020;11.720;2022-12-07T16:43:35;2.30;99.90
7648;DHT22;3866;48.020;11.720;2022-12-07T16:46:03;2.20;99.90
7648;DHT22;3866;48.020;11.720;2022-12-07T16:48:30;2.20;99.90
7648;DHT22;3866;48.020;11.720;2022-12-07T16:50:57;2.20;99.90
7648;DHT22;3866;48.020;11.720;2022-12-07T16:53:28;2.20;99.90